createdAt,value
2017-11-10T00:00:44.618Z,37.53
2017-11-10T00:01:47.094Z,38.30
2017-11-10T00:02:49.559Z,35.78
2017-11-10T00:03:53.567Z,37.05
2017-11-10T00:04:56.121Z,38.47
2017-11-10T00:05:58.603Z,34.90
2017-11-10T00:07:01.840Z,36.53
2017-11-10T00:08:05.079Z,35.83
2017-11-10T00:09:08.368Z,37.60
2017-11-10T00:10:10.831Z,35.85
2017-11-10T00:11:13.403Z,35.53
2017-11-10T00:12:15.868Z,34.85
2017-11-10T00:13:19.114Z,36.13
2017-11-10T00:14:21.708Z,36.33
2017-11-10T00:15:24.184Z,34.45
2017-11-10T00:16:27.422Z,33.30
2017-11-10T00:17:29.895Z,34.85
2017-11-10T00:18:32.406Z,36.22
2017-11-10T00:19:34.898Z,33.55
2017-11-10T00:20:37.442Z,34.38
2017-11-10T00:21:39.987Z,34.17
2017-11-10T00:22:42.462Z,34.25
2017-11-10T00:23:44.962Z,34.20
2017-11-10T00:24:47.441Z,35.00
2017-11-10T00:25:50.729Z,33.35
2017-11-10T00:26:53.216Z,33.00
2017-11-10T00:27:56.498Z,33.70
2017-11-10T00:28:58.988Z,32.75
2017-11-10T00:30:01.467Z,33.17
2017-11-10T00:31:04.077Z,33.80
2017-11-10T00:32:06.543Z,33.55
2017-11-10T00:33:09.805Z,33.97
2017-11-10T00:34:13.038Z,32.20
2017-11-10T00:35:16.283Z,32.50
2017-11-10T00:36:19.553Z,32.75
2017-11-10T00:37:22.054Z,34.78
2017-11-10T00:38:25.296Z,33.38
2017-11-10T00:39:28.539Z,33.97
2017-11-10T00:40:31.770Z,31.85
2017-11-10T00:41:34.260Z,30.65
2017-11-10T00:42:36.727Z,31.20
2017-11-10T00:43:39.955Z,31.37
2017-11-10T00:44:43.200Z,33.10
2017-11-10T00:45:45.660Z,32.00
2017-11-10T00:46:48.150Z,32.53
2017-11-10T00:47:50.887Z,32.38
2017-11-10T00:48:53.345Z,32.13
2017-11-10T00:49:56.573Z,31.90
2017-11-10T00:50:59.811Z,33.17
2017-11-10T00:52:03.059Z,32.30
2017-11-10T00:53:06.266Z,31.25
2017-11-10T00:54:08.996Z,31.20
2017-11-10T00:55:12.290Z,33.45
2017-11-10T00:56:14.772Z,30.42
2017-11-10T00:57:18.003Z,32.35
2017-11-10T00:58:22.024Z,31.75
2017-11-10T00:59:24.483Z,32.08
2017-11-10T01:00:26.940Z,31.40
2017-11-10T01:01:30.166Z,29.00
2017-11-10T01:02:33.446Z,31.10
2017-11-10T01:03:35.973Z,30.83
2017-11-10T01:04:38.482Z,30.90
2017-11-10T01:05:41.010Z,30.83
2017-11-10T01:06:43.490Z,32.28
2017-11-10T01:07:45.992Z,30.00
2017-11-10T01:08:48.470Z,30.20
2017-11-10T01:09:51.733Z,31.25
2017-11-10T01:10:54.205Z,29.60
2017-11-10T01:11:56.651Z,32.45
2017-11-10T01:12:59.131Z,32.08
2017-11-10T01:14:01.607Z,31.58
2017-11-10T01:15:04.906Z,31.50
2017-11-10T01:16:07.447Z,32.53
2017-11-10T01:17:10.367Z,31.52
2017-11-10T01:18:12.884Z,30.90
2017-11-10T01:19:15.364Z,31.70
2017-11-10T01:20:18.587Z,32.53
2017-11-10T01:21:21.043Z,31.55
2017-11-10T01:22:23.541Z,31.83
2017-11-10T01:23:26.047Z,33.10
2017-11-10T01:24:29.290Z,32.92
2017-11-10T01:25:31.778Z,33.00
2017-11-10T01:26:34.289Z,33.50
2017-11-10T01:27:36.866Z,33.83
2017-11-10T01:28:39.377Z,33.67
2017-11-10T01:29:41.908Z,32.88
2017-11-10T01:30:44.410Z,33.75
2017-11-10T01:31:46.885Z,33.63
2017-11-10T01:32:49.517Z,31.05
2017-11-10T01:33:51.976Z,31.80
2017-11-10T01:34:54.473Z,31.02
2017-11-10T01:35:56.977Z,33.55
2017-11-10T01:36:59.434Z,32.40
2017-11-10T01:38:02.675Z,31.62
2017-11-10T01:39:05.907Z,32.80
2017-11-10T01:40:08.481Z,32.47
2017-11-10T01:41:10.984Z,31.83
2017-11-10T01:42:13.439Z,32.70
2017-11-10T01:43:15.912Z,32.25
2017-11-10T01:44:19.178Z,32.17
2017-11-10T01:45:22.425Z,32.03
2017-11-10T01:46:25.417Z,32.70
2017-11-10T01:47:27.975Z,33.22
2017-11-10T01:48:31.210Z,31.75
2017-11-10T01:49:34.449Z,33.22
2017-11-10T01:50:38.122Z,33.35
2017-11-10T01:51:40.696Z,32.00
2017-11-10T01:52:43.162Z,31.17
2017-11-10T01:53:47.344Z,31.80
2017-11-10T01:54:49.836Z,30.77
2017-11-10T01:55:52.319Z,32.08
2017-11-10T01:56:54.770Z,32.15
2017-11-10T01:57:57.226Z,31.55
2017-11-10T01:59:00.503Z,31.77
2017-11-10T02:00:02.980Z,31.42
2017-11-10T02:01:05.533Z,30.65
2017-11-10T02:02:08.016Z,31.40
2017-11-10T02:03:10.500Z,33.13
2017-11-10T02:04:12.976Z,29.52
2017-11-10T02:05:16.227Z,29.85
2017-11-10T02:06:19.492Z,32.47
2017-11-10T02:07:21.972Z,30.37
2017-11-10T02:08:24.422Z,32.35
2017-11-10T02:09:27.662Z,33.28
2017-11-10T02:10:30.907Z,33.50
2017-11-10T02:11:34.225Z,33.08
2017-11-10T02:12:36.704Z,33.20
2017-11-10T02:13:39.171Z,34.65
2017-11-10T02:14:41.742Z,34.17
2017-11-10T02:15:44.215Z,33.58
2017-11-10T02:16:46.789Z,34.13
2017-11-10T02:17:50.037Z,34.20
2017-11-10T02:18:52.537Z,33.67
2017-11-10T02:19:55.799Z,34.30
2017-11-10T02:20:59.155Z,35.17
2017-11-10T02:22:03.436Z,34.83
2017-11-10T02:23:05.899Z,33.13
2017-11-10T02:24:08.389Z,36.30
2017-11-10T02:25:10.849Z,32.85
2017-11-10T02:26:13.320Z,35.47
2017-11-10T02:27:15.784Z,35.28
2017-11-10T02:28:18.379Z,35.45
2017-11-10T02:29:20.890Z,35.50
2017-11-10T02:30:24.125Z,35.88
2017-11-10T02:31:27.496Z,36.22
2017-11-10T02:32:29.960Z,34.78
2017-11-10T02:33:33.972Z,36.33
2017-11-10T02:34:36.439Z,37.25
2017-11-10T02:35:38.925Z,37.55
2017-11-10T02:36:41.380Z,35.67
2017-11-10T02:37:43.864Z,37.90
2017-11-10T02:38:48.151Z,37.95
2017-11-10T02:39:50.665Z,37.25
2017-11-10T02:40:53.152Z,37.92
2017-11-10T02:41:55.615Z,36.17
2017-11-10T02:42:58.091Z,37.20
2017-11-10T02:44:01.351Z,36.78
2017-11-10T02:45:04.585Z,35.75
2017-11-10T02:46:07.126Z,37.03
2017-11-10T02:47:10.381Z,36.40
2017-11-10T02:48:12.886Z,37.90
2017-11-10T02:49:15.380Z,37.53
2017-11-10T02:50:17.854Z,35.35
2017-11-10T02:51:21.102Z,36.28
2017-11-10T02:52:23.571Z,37.38
2017-11-10T02:53:26.040Z,36.10
2017-11-10T02:54:29.287Z,38.63
2017-11-10T02:55:31.824Z,36.40
2017-11-10T02:56:34.313Z,36.08
2017-11-10T02:57:36.797Z,35.45
2017-11-10T02:58:39.264Z,35.25
2017-11-10T02:59:41.739Z,35.13
2017-11-10T03:00:44.213Z,36.03
2017-11-10T03:01:46.670Z,36.75
2017-11-10T03:02:49.192Z,35.55
2017-11-10T03:03:51.805Z,36.28
2017-11-10T03:04:55.019Z,36.60
2017-11-10T03:05:57.511Z,36.38
2017-11-10T03:07:00.026Z,34.80
2017-11-10T03:08:02.595Z,35.08
2017-11-10T03:09:05.078Z,35.78
2017-11-10T03:10:07.560Z,35.28
2017-11-10T03:11:10.132Z,35.47
2017-11-10T03:12:12.636Z,34.13
2017-11-10T03:13:15.152Z,35.55
2017-11-10T03:14:18.379Z,35.30
2017-11-10T03:15:20.847Z,32.83
2017-11-10T03:16:23.369Z,33.35
2017-11-10T03:17:26.263Z,34.00
2017-11-10T03:18:28.759Z,35.28
2017-11-10T03:19:31.242Z,32.35
2017-11-10T03:20:34.493Z,33.58
2017-11-10T03:21:36.980Z,31.73
2017-11-10T03:22:40.222Z,34.97
2017-11-10T03:23:43.455Z,33.70
2017-11-10T03:24:46.536Z,34.00
2017-11-10T03:25:49.025Z,33.15
2017-11-10T03:26:51.494Z,31.58
2017-11-10T03:27:54.002Z,34.25
2017-11-10T03:28:57.239Z,31.90
2017-11-10T03:30:00.464Z,32.72
2017-11-10T03:31:02.953Z,33.03
2017-11-10T03:32:05.418Z,32.10
2017-11-10T03:33:08.676Z,30.50
2017-11-10T03:34:12.031Z,32.05
2017-11-10T03:35:14.481Z,32.08
2017-11-10T03:36:16.952Z,32.60
2017-11-10T03:37:19.447Z,31.33
2017-11-10T03:38:21.919Z,30.60
2017-11-10T03:39:25.201Z,30.62
2017-11-10T03:40:27.708Z,33.35
2017-11-10T03:41:30.218Z,29.92
2017-11-10T03:42:33.517Z,31.12
2017-11-10T03:43:35.972Z,31.35
2017-11-10T03:44:39.203Z,30.27
2017-11-10T03:45:41.690Z,29.40
2017-11-10T03:46:44.174Z,29.63
2017-11-10T03:47:46.701Z,31.87
2017-11-10T03:48:50.021Z,32.28
2017-11-10T03:49:53.986Z,30.10
2017-11-10T03:50:57.260Z,32.97
2017-11-10T03:51:59.750Z,29.55
2017-11-10T03:53:02.215Z,30.20
2017-11-10T03:54:04.683Z,28.98
2017-11-10T03:55:07.154Z,29.30
2017-11-10T03:56:09.644Z,29.90
2017-11-10T03:57:12.922Z,29.50
2017-11-10T03:58:15.383Z,32.30
2017-11-10T03:59:17.898Z,29.17
2017-11-10T04:00:20.371Z,28.77
2017-11-10T04:01:23.771Z,27.77
2017-11-10T04:02:26.234Z,28.15
2017-11-10T04:03:29.466Z,29.87
2017-11-10T04:04:32.023Z,29.83
2017-11-10T04:05:35.247Z,29.55
2017-11-10T04:06:37.721Z,28.70
2017-11-10T04:07:40.188Z,29.35
2017-11-10T04:08:42.777Z,28.25
2017-11-10T04:09:45.257Z,26.25
2017-11-10T04:10:47.739Z,27.45
2017-11-10T04:11:50.234Z,26.92
2017-11-10T04:12:52.718Z,28.95
2017-11-10T04:13:55.954Z,29.45
2017-11-10T04:14:58.413Z,28.17
2017-11-10T04:16:01.794Z,27.80
2017-11-10T04:17:04.242Z,29.40
2017-11-10T04:18:06.824Z,26.85
2017-11-10T04:19:09.295Z,28.40
2017-11-10T04:20:11.766Z,27.13
2017-11-10T04:21:14.294Z,28.55
2017-11-10T04:22:16.818Z,26.17
2017-11-10T04:23:19.343Z,26.40
2017-11-10T04:24:21.799Z,27.45
2017-11-10T04:25:24.304Z,25.65
2017-11-10T04:26:26.760Z,26.87
2017-11-10T04:27:29.249Z,27.73
2017-11-10T04:28:31.766Z,27.27
2017-11-10T04:29:34.252Z,26.00
2017-11-10T04:30:36.727Z,25.75
2017-11-10T04:31:39.196Z,26.42
2017-11-10T04:32:41.724Z,27.65
2017-11-10T04:33:44.216Z,23.17
2017-11-10T04:34:46.692Z,24.80
2017-11-10T04:35:49.919Z,25.95
2017-11-10T04:36:53.147Z,26.50
2017-11-10T04:37:55.667Z,25.75
2017-11-10T04:38:58.128Z,27.08
2017-11-10T04:40:01.392Z,24.98
2017-11-10T04:41:03.912Z,25.83
2017-11-10T04:42:07.261Z,27.80
2017-11-10T04:43:10.501Z,25.35
2017-11-10T04:44:13.720Z,25.80
2017-11-10T04:45:16.269Z,24.75
2017-11-10T04:46:19.504Z,25.52
2017-11-10T04:47:22.725Z,25.37
2017-11-10T04:48:25.189Z,25.90
2017-11-10T04:49:28.255Z,24.87
2017-11-10T04:50:30.740Z,25.75
2017-11-10T04:51:33.994Z,26.60
2017-11-10T04:52:36.458Z,24.58
2017-11-10T04:53:39.924Z,25.80
2017-11-10T04:54:43.903Z,24.58
2017-11-10T04:55:47.264Z,24.25
2017-11-10T04:56:50.621Z,26.42
2017-11-10T04:57:53.092Z,24.17
2017-11-10T04:58:56.316Z,25.08
2017-11-10T04:59:58.784Z,25.40
2017-11-10T05:01:01.355Z,25.92
2017-11-10T05:02:03.861Z,24.60
2017-11-10T05:03:06.324Z,25.37
2017-11-10T05:04:08.780Z,25.25
2017-11-10T05:05:11.243Z,23.35
2017-11-10T05:06:13.724Z,23.38
2017-11-10T05:07:16.231Z,24.02
2017-11-10T05:08:18.698Z,25.90
2017-11-10T05:09:21.997Z,25.70
2017-11-10T05:10:24.458Z,24.95
2017-11-10T05:11:27.691Z,24.98
2017-11-10T05:12:31.056Z,25.98
2017-11-10T05:13:33.520Z,24.67
2017-11-10T05:14:36.003Z,25.60
2017-11-10T05:15:38.467Z,25.98
2017-11-10T05:16:40.948Z,27.10
2017-11-10T05:17:44.287Z,27.15
2017-11-10T05:18:47.521Z,26.25
2017-11-10T05:19:50.734Z,27.00
2017-11-10T05:20:53.190Z,27.95
2017-11-10T05:21:56.500Z,28.27
2017-11-10T05:22:58.987Z,27.20
2017-11-10T05:24:02.223Z,27.10
2017-11-10T05:25:04.679Z,29.25
2017-11-10T05:26:07.174Z,28.60
2017-11-10T05:27:09.630Z,28.38
2017-11-10T05:28:12.107Z,28.60
2017-11-10T05:29:14.571Z,30.10
2017-11-10T05:30:17.060Z,28.73
2017-11-10T05:31:20.340Z,29.33
2017-11-10T05:32:22.793Z,28.62
2017-11-10T05:33:25.309Z,28.00
2017-11-10T05:34:27.776Z,30.50
2017-11-10T05:35:31.016Z,28.38
2017-11-10T05:36:34.265Z,30.00
2017-11-10T05:37:37.546Z,29.20
2017-11-10T05:38:40.021Z,32.10
2017-11-10T05:39:43.283Z,29.58
2017-11-10T05:40:45.765Z,30.90
2017-11-10T05:41:48.280Z,30.42
2017-11-10T05:42:50.741Z,28.85
2017-11-10T05:43:53.994Z,30.35
2017-11-10T05:44:57.242Z,28.75
2017-11-10T05:46:00.474Z,29.52
2017-11-10T05:47:02.977Z,30.55
2017-11-10T05:48:05.447Z,30.58
2017-11-10T05:49:07.944Z,31.12
2017-11-10T05:50:11.200Z,29.95
2017-11-10T05:51:13.705Z,30.42
2017-11-10T05:52:17.036Z,29.75
2017-11-10T05:53:20.272Z,28.77
2017-11-10T05:54:23.524Z,31.17
2017-11-10T05:55:26.008Z,28.85
2017-11-10T05:56:28.472Z,30.10
2017-11-10T05:57:31.673Z,29.00
2017-11-10T05:58:34.137Z,29.85
2017-11-10T05:59:37.414Z,28.70
2017-11-10T06:00:39.866Z,29.60
2017-11-10T06:01:42.344Z,29.12
2017-11-10T06:02:45.607Z,28.45
2017-11-10T06:03:48.083Z,28.10
2017-11-10T06:04:50.558Z,29.48
2017-11-10T06:05:53.072Z,28.65
2017-11-10T06:06:56.299Z,28.30
2017-11-10T06:07:59.564Z,29.90
2017-11-10T06:09:02.821Z,29.30
2017-11-10T06:10:05.291Z,28.17
2017-11-10T06:11:07.781Z,27.35
2017-11-10T06:12:10.252Z,27.45
2017-11-10T06:13:12.714Z,29.42
2017-11-10T06:14:15.250Z,26.80
2017-11-10T06:15:17.739Z,31.08
2017-11-10T06:16:22.011Z,28.85
2017-11-10T06:17:25.253Z,30.08
2017-11-10T06:18:28.492Z,28.33
2017-11-10T06:19:31.770Z,27.52
2017-11-10T06:20:34.280Z,29.02
2017-11-10T06:21:36.802Z,27.87
2017-11-10T06:22:39.287Z,29.12
2017-11-10T06:23:42.545Z,28.90
2017-11-10T06:24:44.994Z,29.48
2017-11-10T06:25:47.471Z,29.75
2017-11-10T06:26:49.936Z,28.38
2017-11-10T06:27:53.196Z,27.10
2017-11-10T06:28:56.098Z,28.55
2017-11-10T06:29:59.322Z,28.35
2017-11-10T06:31:01.771Z,27.77
2017-11-10T06:32:05.013Z,27.70
2017-11-10T06:33:08.390Z,27.73
2017-11-10T06:34:10.950Z,27.85
2017-11-10T06:35:13.414Z,27.30
2017-11-10T06:36:15.958Z,27.20
2017-11-10T06:37:18.553Z,28.90
2017-11-10T06:38:21.827Z,29.27
2017-11-10T06:39:24.401Z,28.02
2017-11-10T06:40:26.979Z,28.35
2017-11-10T06:41:29.451Z,27.83
2017-11-10T06:42:31.927Z,28.95
2017-11-10T06:43:34.444Z,28.00
2017-11-10T06:44:37.689Z,26.98
2017-11-10T06:45:40.927Z,27.80
2017-11-10T06:46:44.160Z,28.62
2017-11-10T06:47:47.383Z,26.70
2017-11-10T06:48:49.887Z,29.15
2017-11-10T06:49:52.357Z,28.20
2017-11-10T06:50:55.596Z,29.87
2017-11-10T06:51:58.837Z,28.83
2017-11-10T06:53:01.354Z,30.15
2017-11-10T06:54:03.811Z,26.40
2017-11-10T06:55:06.267Z,27.67
2017-11-10T06:56:08.741Z,28.80
2017-11-10T06:57:11.976Z,29.25
2017-11-10T06:58:15.258Z,28.02
2017-11-10T06:59:17.723Z,27.00
2017-11-10T07:00:20.201Z,25.85
2017-11-10T07:01:22.663Z,26.35
2017-11-10T07:02:25.118Z,27.35
2017-11-10T07:03:28.399Z,26.30
2017-11-10T07:04:30.864Z,26.52
2017-11-10T07:05:34.108Z,26.95
2017-11-10T07:06:36.576Z,26.70
2017-11-10T07:07:39.026Z,26.15
2017-11-10T07:08:41.529Z,27.37
2017-11-10T07:09:44.053Z,27.48
2017-11-10T07:10:46.524Z,27.20
2017-11-10T07:11:48.983Z,27.52
2017-11-10T07:12:52.219Z,27.10
2017-11-10T07:13:55.582Z,26.80
2017-11-10T07:14:58.799Z,28.50
2017-11-10T07:16:01.310Z,27.55
2017-11-10T07:17:03.793Z,27.30
2017-11-10T07:18:06.258Z,26.80
2017-11-10T07:19:08.753Z,25.37
2017-11-10T07:20:11.208Z,27.08
2017-11-10T07:21:13.683Z,28.23
2017-11-10T07:22:16.171Z,27.62
2017-11-10T07:23:18.727Z,27.23
2017-11-10T07:24:21.231Z,27.40
2017-11-10T07:25:24.455Z,28.10
2017-11-10T07:26:26.916Z,26.67
2017-11-10T07:27:30.164Z,24.90
2017-11-10T07:28:32.683Z,27.42
2017-11-10T07:29:35.175Z,27.00
2017-11-10T07:30:37.659Z,28.17
2017-11-10T07:31:40.131Z,27.35
2017-11-10T07:32:42.609Z,27.20
2017-11-10T07:33:45.083Z,25.60
2017-11-10T07:34:47.582Z,27.15
2017-11-10T07:35:50.369Z,27.25
2017-11-10T07:36:52.862Z,27.30
2017-11-10T07:37:55.314Z,26.95
2017-11-10T07:38:57.771Z,27.02
2017-11-10T07:40:00.267Z,25.27
2017-11-10T07:41:02.808Z,26.92
2017-11-10T07:42:05.265Z,29.70
2017-11-10T07:43:07.861Z,26.62
2017-11-10T07:44:10.372Z,26.52
2017-11-10T07:45:12.827Z,28.48
2017-11-10T07:46:15.291Z,26.08
2017-11-10T07:47:17.772Z,25.80
2017-11-10T07:48:20.251Z,27.42
2017-11-10T07:49:23.504Z,28.95
2017-11-10T07:50:26.736Z,26.65
2017-11-10T07:51:29.999Z,26.62
2017-11-10T07:52:32.472Z,26.40
2017-11-10T07:53:35.053Z,26.98
2017-11-10T07:54:37.538Z,26.20
2017-11-10T07:55:40.011Z,25.23
2017-11-10T07:56:42.480Z,27.62
2017-11-10T07:57:44.959Z,26.20
2017-11-10T07:58:47.454Z,26.12
2017-11-10T07:59:50.709Z,27.75
2017-11-10T08:00:53.948Z,25.48
2017-11-10T08:01:57.201Z,25.37
2017-11-10T08:03:00.463Z,26.90
2017-11-10T08:04:02.967Z,26.75
2017-11-10T08:05:05.475Z,24.65
2017-11-10T08:06:08.796Z,27.13
2017-11-10T08:07:11.267Z,28.55
2017-11-10T08:08:13.729Z,25.12
2017-11-10T08:09:16.216Z,24.87
2017-11-10T08:10:18.773Z,26.27
2017-11-10T08:11:21.268Z,24.98
2017-11-10T08:12:23.772Z,26.52
2017-11-10T08:13:26.299Z,26.48
2017-11-10T08:14:29.545Z,27.55
2017-11-10T08:15:33.130Z,26.98
2017-11-10T08:16:35.595Z,26.15
2017-11-10T08:17:38.118Z,25.50
2017-11-10T08:18:41.429Z,25.20
2017-11-10T08:19:43.935Z,24.90
2017-11-10T08:20:46.403Z,25.83
2017-11-10T08:21:48.885Z,25.23
2017-11-10T08:22:51.394Z,25.60
2017-11-10T08:23:54.631Z,25.20
2017-11-10T08:24:57.912Z,24.95
2017-11-10T08:26:00.392Z,27.05
2017-11-10T08:27:03.623Z,25.85
2017-11-10T08:28:06.183Z,24.60
2017-11-10T08:29:08.673Z,25.50
2017-11-10T08:30:11.246Z,25.75
2017-11-10T08:31:13.718Z,25.88
2017-11-10T08:32:16.186Z,24.37
2017-11-10T08:33:18.706Z,24.87
2017-11-10T08:34:21.178Z,22.85
2017-11-10T08:35:23.741Z,26.50
2017-11-10T08:36:26.971Z,26.10
2017-11-10T08:37:29.536Z,24.52
2017-11-10T08:38:32.009Z,25.83
2017-11-10T08:39:34.480Z,23.85
2017-11-10T08:40:37.047Z,23.45
2017-11-10T08:41:39.500Z,24.48
2017-11-10T08:42:41.959Z,23.73
2017-11-10T08:43:44.442Z,25.20
2017-11-10T08:44:47.007Z,24.37
2017-11-10T08:45:49.532Z,24.05
2017-11-10T08:46:52.022Z,26.17
2017-11-10T08:47:54.519Z,23.73
2017-11-10T08:48:56.967Z,23.30
2017-11-10T08:49:59.432Z,24.70
2017-11-10T08:51:01.930Z,24.75
2017-11-10T08:52:04.441Z,24.15
2017-11-10T08:53:07.011Z,26.25
2017-11-10T08:54:10.243Z,25.60
2017-11-10T08:55:13.471Z,25.67
2017-11-10T08:56:16.884Z,25.48
2017-11-10T08:57:19.412Z,23.52
2017-11-10T08:58:21.891Z,24.23
2017-11-10T08:59:24.343Z,22.52
2017-11-10T09:00:26.815Z,23.38
2017-11-10T09:01:30.092Z,25.00
2017-11-10T09:02:32.563Z,24.83
2017-11-10T09:03:35.035Z,23.77
2017-11-10T09:04:37.504Z,23.92
2017-11-10T09:05:39.972Z,24.17
2017-11-10T09:06:42.459Z,23.60
2017-11-10T09:07:44.930Z,22.67
2017-11-10T09:08:47.422Z,23.25
2017-11-10T09:09:49.901Z,25.20
2017-11-10T09:10:52.356Z,25.48
2017-11-10T09:11:54.859Z,22.65
2017-11-10T09:12:57.319Z,24.90
2017-11-10T09:13:59.795Z,24.33
2017-11-10T09:15:02.258Z,24.23
2017-11-10T09:16:04.829Z,23.33
2017-11-10T09:17:07.336Z,24.58
2017-11-10T09:18:10.579Z,23.05
2017-11-10T09:19:13.840Z,23.27
2017-11-10T09:20:16.359Z,23.48
2017-11-10T09:21:19.594Z,23.45
2017-11-10T09:22:22.870Z,22.85
2017-11-10T09:23:25.320Z,23.00
2017-11-10T09:24:27.775Z,23.67
2017-11-10T09:25:30.262Z,23.62
2017-11-10T09:26:32.751Z,23.48
2017-11-10T09:27:35.207Z,24.17
2017-11-10T09:28:43.099Z,23.75
2017-11-10T09:29:47.811Z,23.42
2017-11-10T09:31:02.102Z,24.05
2017-11-10T09:32:04.562Z,22.73
2017-11-10T09:33:23.841Z,23.20
2017-11-10T09:34:41.133Z,21.75
2017-11-10T09:35:55.291Z,23.33
2017-11-10T09:37:02.536Z,23.12
2017-11-10T09:38:06.944Z,23.52
2017-11-10T09:39:15.077Z,23.87
2017-11-10T09:40:36.303Z,25.37
2017-11-10T09:41:55.410Z,23.55
2017-11-10T09:43:03.588Z,22.85
2017-11-10T09:44:11.774Z,24.70
2017-11-10T09:45:30.169Z,23.58
2017-11-10T09:46:35.946Z,23.15
2017-11-10T09:47:44.216Z,24.08
2017-11-10T09:49:05.502Z,23.10
2017-11-10T09:50:13.682Z,23.95
2017-11-10T09:51:21.935Z,22.73
2017-11-10T09:54:00.860Z,23.73
2017-11-10T09:55:03.325Z,23.05
2017-11-10T09:56:11.587Z,23.12
2017-11-10T09:57:30.706Z,23.08
2017-11-10T09:58:34.851Z,23.40
2017-11-10T09:59:43.101Z,23.35
2017-11-10T10:01:04.305Z,21.75
2017-11-10T10:02:06.802Z,23.67
2017-11-10T10:03:14.079Z,21.30
2017-11-10T10:04:31.463Z,22.62
2017-11-10T10:05:39.643Z,22.05
2017-11-10T10:07:01.822Z,21.55
2017-11-10T10:08:10.794Z,22.15
2017-11-10T10:09:25.905Z,22.33
2017-11-10T10:10:34.066Z,21.55
2017-11-10T10:11:40.062Z,22.42
2017-11-10T10:12:57.403Z,24.15
2017-11-10T10:14:05.514Z,23.60
2017-11-10T10:15:08.547Z,21.37
2017-11-10T10:16:16.781Z,22.60
2017-11-10T10:17:25.720Z,21.35
2017-11-10T10:18:33.991Z,23.17
2017-11-10T10:19:38.091Z,21.90
2017-11-10T10:21:00.421Z,22.15
2017-11-10T10:22:23.684Z,23.77
2017-11-10T10:23:26.147Z,20.62
2017-11-10T10:24:28.609Z,21.77
2017-11-10T10:25:31.864Z,21.60
2017-11-10T10:26:34.360Z,22.30
2017-11-10T10:27:36.831Z,22.60
2017-11-10T10:28:39.304Z,22.90
2017-11-10T10:29:41.790Z,21.58
2017-11-10T10:30:44.399Z,21.20
2017-11-10T10:31:46.877Z,21.60
2017-11-10T10:32:49.353Z,21.25
2017-11-10T10:33:51.825Z,20.95
2017-11-10T10:34:54.287Z,21.37
2017-11-10T10:35:56.786Z,21.40
2017-11-10T10:36:59.356Z,20.75
2017-11-10T10:38:01.818Z,20.83
2017-11-10T10:39:04.291Z,21.80
2017-11-10T10:40:06.777Z,21.67
2017-11-10T10:41:09.361Z,20.23
2017-11-10T10:42:11.830Z,21.40
2017-11-10T10:43:14.295Z,20.98
2017-11-10T10:44:16.763Z,21.67
2017-11-10T10:45:19.240Z,21.80
2017-11-10T10:46:21.763Z,21.37
2017-11-10T10:47:25.022Z,20.88
2017-11-10T10:48:27.487Z,21.12
2017-11-10T10:49:29.966Z,21.52
2017-11-10T10:50:32.457Z,22.33
2017-11-10T10:51:35.763Z,22.00
2017-11-10T10:52:38.228Z,21.08
2017-11-10T10:53:41.499Z,20.88
2017-11-10T10:54:43.947Z,20.50
2017-11-10T10:55:46.435Z,20.62
2017-11-10T10:56:49.676Z,19.95
2017-11-10T10:57:52.948Z,20.65
2017-11-10T10:58:55.428Z,20.55
2017-11-10T10:59:57.887Z,19.12
2017-11-10T11:01:00.358Z,20.33
2017-11-10T11:02:02.868Z,20.88
2017-11-10T11:03:06.003Z,19.17
2017-11-10T11:04:09.184Z,19.20
2017-11-10T11:05:11.661Z,19.25
2017-11-10T11:06:14.148Z,19.15
2017-11-10T11:07:17.425Z,18.45
2017-11-10T11:08:19.887Z,19.48
2017-11-10T11:09:22.362Z,19.00
2017-11-10T11:10:24.880Z,17.85
2017-11-10T11:11:27.334Z,18.15
2017-11-10T11:12:29.851Z,18.00
2017-11-10T11:13:32.311Z,18.02
2017-11-10T11:14:34.785Z,18.25
2017-11-10T11:15:37.304Z,19.35
2017-11-10T11:16:39.769Z,17.90
2017-11-10T11:17:42.234Z,18.70
2017-11-10T11:18:45.465Z,17.58
2017-11-10T11:19:48.707Z,17.62
2017-11-10T11:20:51.301Z,18.95
2017-11-10T11:21:53.763Z,18.23
2017-11-10T11:22:56.998Z,18.77
2017-11-10T11:23:59.474Z,17.55
2017-11-10T11:25:01.926Z,18.70
2017-11-10T11:26:04.505Z,17.35
2017-11-10T11:27:06.988Z,19.10
2017-11-10T11:28:09.573Z,18.87
2017-11-10T11:29:12.051Z,17.92
2017-11-10T11:30:14.527Z,17.85
2017-11-10T11:31:17.036Z,18.58
2017-11-10T11:32:19.538Z,17.10
2017-11-10T11:33:22.794Z,17.95
2017-11-10T11:34:25.337Z,16.35
2017-11-10T11:35:28.269Z,17.65
2017-11-10T11:36:30.792Z,17.25
2017-11-10T11:37:34.220Z,17.67
2017-11-10T11:38:37.482Z,17.65
2017-11-10T11:39:40.019Z,16.02
2017-11-10T11:40:42.491Z,16.23
2017-11-10T11:41:44.992Z,17.12
2017-11-10T11:42:48.261Z,16.55
2017-11-10T11:43:51.528Z,17.60
2017-11-10T11:44:54.755Z,16.70
2017-11-10T11:45:57.219Z,16.83
2017-11-10T11:46:59.768Z,17.48
2017-11-10T11:48:02.243Z,17.40
2017-11-10T11:49:05.954Z,16.87
2017-11-10T11:50:08.416Z,16.15
2017-11-10T11:51:11.680Z,16.10
2017-11-10T11:52:14.203Z,16.58
2017-11-10T11:53:16.674Z,14.95
2017-11-10T11:54:19.141Z,15.38
2017-11-10T11:55:22.360Z,16.10
2017-11-10T11:56:24.927Z,16.37
2017-11-10T11:57:27.420Z,16.73
2017-11-10T11:58:29.872Z,15.90
2017-11-10T11:59:32.352Z,17.35
2017-11-10T12:00:34.895Z,16.48
2017-11-10T12:01:37.355Z,15.55
2017-11-10T12:02:39.849Z,16.55
2017-11-10T12:03:43.086Z,16.08
2017-11-10T12:04:46.328Z,16.23
2017-11-10T12:05:48.888Z,16.00
2017-11-10T12:06:51.355Z,16.80
2017-11-10T12:07:53.859Z,16.55
2017-11-10T12:08:56.338Z,16.25
2017-11-10T12:09:59.604Z,15.98
2017-11-10T12:11:02.051Z,15.75
2017-11-10T12:12:04.515Z,15.95
2017-11-10T12:13:07.030Z,16.10
2017-11-10T12:14:11.008Z,16.42
2017-11-10T12:15:14.251Z,15.50
2017-11-10T12:16:17.498Z,14.90
2017-11-10T12:17:20.731Z,15.52
2017-11-10T12:18:23.206Z,16.40
2017-11-10T12:19:25.687Z,15.10
2017-11-10T12:20:28.935Z,15.90
2017-11-10T12:21:32.200Z,16.50
2017-11-10T12:22:34.663Z,15.85
2017-11-10T12:23:37.158Z,15.77
2017-11-10T12:24:39.624Z,15.73
2017-11-10T12:25:42.098Z,16.17
2017-11-10T12:26:44.572Z,14.73
2017-11-10T12:27:47.139Z,15.85
2017-11-10T12:28:49.630Z,14.63
2017-11-10T12:29:52.095Z,16.33
2017-11-10T12:30:54.559Z,14.57
2017-11-10T12:31:57.016Z,15.02
2017-11-10T12:33:00.254Z,14.60
2017-11-10T12:34:02.747Z,16.25
2017-11-10T12:35:05.206Z,14.63
2017-11-10T12:36:07.659Z,15.45
2017-11-10T12:37:10.130Z,14.63
2017-11-10T12:38:12.598Z,14.75
2017-11-10T12:39:15.964Z,15.20
2017-11-10T12:40:18.451Z,13.52
2017-11-10T12:41:21.711Z,13.93
2017-11-10T12:42:24.929Z,14.85
2017-11-10T12:43:27.396Z,15.43
2017-11-10T12:44:29.930Z,14.93
2017-11-10T12:45:32.401Z,15.00
2017-11-10T12:46:34.881Z,16.30
2017-11-10T12:47:37.421Z,16.15
2017-11-10T12:48:39.904Z,16.08
2017-11-10T12:49:42.446Z,15.45
2017-11-10T12:50:44.934Z,16.92
2017-11-10T12:51:47.399Z,16.20
2017-11-10T12:52:49.886Z,15.90
2017-11-10T12:53:52.364Z,15.85
2017-11-10T12:54:54.852Z,16.60
2017-11-10T12:55:57.409Z,16.33
2017-11-10T12:56:59.893Z,16.02
2017-11-10T12:58:03.232Z,15.20
2017-11-10T12:59:05.692Z,16.08
2017-11-10T13:00:08.202Z,16.10
2017-11-10T13:01:11.443Z,16.10
2017-11-10T13:02:14.725Z,15.55
2017-11-10T13:03:17.203Z,15.98
2017-11-10T13:04:20.436Z,16.12
2017-11-10T13:05:23.767Z,14.77
2017-11-10T13:06:27.012Z,15.18
2017-11-10T13:07:29.478Z,17.02
2017-11-10T13:08:31.964Z,16.80
2017-11-10T13:09:34.431Z,15.98
2017-11-10T13:10:36.953Z,16.75
2017-11-10T13:11:39.447Z,16.90
2017-11-10T13:12:41.951Z,18.87
2017-11-10T13:13:44.656Z,16.67
2017-11-10T13:14:47.146Z,17.02
2017-11-10T13:15:50.515Z,19.08
2017-11-10T13:16:52.996Z,16.73
2017-11-10T13:17:55.459Z,17.90
2017-11-10T13:18:57.987Z,17.15
2017-11-10T13:20:00.470Z,17.62
2017-11-10T13:21:02.941Z,18.05
2017-11-10T13:22:05.421Z,17.80
2017-11-10T13:23:07.878Z,16.92
2017-11-10T13:24:10.364Z,17.30
2017-11-10T13:25:12.864Z,17.83
2017-11-10T13:26:15.333Z,17.10
2017-11-10T13:27:18.567Z,17.37
2017-11-10T13:28:21.043Z,17.25
2017-11-10T13:29:23.529Z,17.30
2017-11-10T13:30:27.008Z,17.70
2017-11-10T13:31:29.497Z,16.92
2017-11-10T13:32:32.719Z,17.70
2017-11-10T13:33:36.013Z,16.83
2017-11-10T13:34:38.484Z,16.52
2017-11-10T13:35:40.982Z,17.85